createdAt,value
2022-12-08T00:04:09.008Z,0.22
2022-12-08T00:09:22.144Z,0.23
2022-12-08T00:14:36.600Z,0.26
2022-12-08T00:19:39.913Z,0.26
2022-12-08T00:24:45.620Z,0.24
2022-12-08T00:29:48.496Z,0.23
2022-12-08T00:34:51.236Z,0.21
2022-12-08T00:39:53.969Z,0.18
2022-12-08T00:44:56.708Z,0.18
2022-12-08T00:49:59.449Z,0.18
2022-12-08T00:55:02.590Z,0.19
2022-12-08T01:00:06.945Z,0.20
2022-12-08T01:05:09.903Z,0.23
2022-12-08T01:10:12.707Z,0.26
2022-12-08T01:15:15.669Z,0.28
2022-12-08T01:20:18.544Z,0.30
2022-12-08T01:25:21.293Z,0.27
2022-12-08T01:30:24.068Z,0.28
2022-12-08T01:35:26.853Z,0.29
2022-12-08T01:40:29.623Z,0.29
2022-12-08T01:45:32.676Z,0.29
2022-12-08T01:50:36.024Z,0.30
2022-12-08T01:55:43.696Z,0.32
2022-12-08T02:00:46.651Z,0.33
2022-12-08T02:05:49.528Z,0.35
2022-12-08T02:10:53.189Z,0.37
2022-12-08T02:16:01.121Z,0.36
2022-12-08T02:21:35.981Z,0.35
2022-12-08T02:27:06.250Z,0.32
2022-12-08T02:32:24.060Z,0.22
2022-12-08T02:37:32.634Z,0.12
2022-12-08T02:42:44.549Z,0.04
2022-12-08T02:47:48.065Z,-0.04
2022-12-08T02:52:50.811Z,-0.05
2022-12-08T02:58:21.753Z,-0.03
2022-12-08T03:03:46.576Z,-0.10
2022-12-08T03:08:58.683Z,-0.16
2022-12-08T03:14:05.262Z,-0.21
2022-12-08T03:19:25.835Z,-0.30
2022-12-08T03:24:32.455Z,-0.40
2022-12-08T03:29:36.056Z,-0.45
2022-12-08T03:34:42.464Z,-0.50
2022-12-08T03:39:45.330Z,-0.56
2022-12-08T03:44:48.059Z,-0.60
2022-12-08T03:49:50.812Z,-0.57
2022-12-08T03:54:53.676Z,-0.55
2022-12-08T03:59:56.461Z,-0.57
2022-12-08T04:04:59.192Z,-0.55
2022-12-08T04:10:02.214Z,-0.50
2022-12-08T04:15:05.796Z,-0.44
2022-12-08T04:20:08.888Z,-0.35
2022-12-08T04:25:11.660Z,-0.22
2022-12-08T04:30:14.515Z,-0.13
2022-12-08T04:35:17.370Z,-0.05
2022-12-08T04:40:20.349Z,0.06
2022-12-08T04:45:23.149Z,0.14
2022-12-08T04:50:26.781Z,0.18
2022-12-08T04:55:29.538Z,0.25
2022-12-08T05:00:32.301Z,0.29
2022-12-08T05:05:35.464Z,0.30
2022-12-08T05:10:38.919Z,0.36
2022-12-08T05:15:41.651Z,0.39
2022-12-08T05:20:44.433Z,0.39
2022-12-08T05:25:47.171Z,0.35
2022-12-08T05:30:50.222Z,0.35
2022-12-08T05:35:53.019Z,0.38
2022-12-08T05:40:55.788Z,0.38
2022-12-08T05:45:58.745Z,0.38
2022-12-08T05:51:02.195Z,0.41
2022-12-08T05:56:05.213Z,0.40
2022-12-08T06:01:08.511Z,0.39
2022-12-08T06:06:11.281Z,0.40
2022-12-08T06:11:33.273Z,0.39
2022-12-08T06:16:36.414Z,0.39
2022-12-08T06:21:39.269Z,0.40
2022-12-08T06:26:42.605Z,0.38
2022-12-08T06:31:45.463Z,0.36
2022-12-08T06:36:48.407Z,0.35
2022-12-08T06:42:17.347Z,0.33
2022-12-08T06:47:26.202Z,0.32
2022-12-08T06:52:29.865Z,0.33
2022-12-08T06:57:32.694Z,0.32
2022-12-08T07:02:35.534Z,0.30
2022-12-08T07:07:38.627Z,0.30
2022-12-08T07:12:41.606Z,0.37
2022-12-08T07:17:44.330Z,0.40
2022-12-08T07:22:51.700Z,0.64
2022-12-08T07:27:54.506Z,1.12
2022-12-08T07:32:57.267Z,1.53
2022-12-08T07:38:00.014Z,1.69
2022-12-08T07:43:02.814Z,1.83
2022-12-08T07:48:06.102Z,1.87
2022-12-08T07:53:09.159Z,2.08
2022-12-08T07:58:12.225Z,2.19
2022-12-08T08:03:15.164Z,2.43
2022-12-08T08:08:19.148Z,2.52
2022-12-08T08:13:22.053Z,2.55
2022-12-08T08:18:24.818Z,2.60
2022-12-08T08:23:28.244Z,2.63
2022-12-08T08:28:31.008Z,2.72
2022-12-08T08:33:33.802Z,2.68
2022-12-08T08:38:42.799Z,2.61
2022-12-08T08:43:45.736Z,2.63
2022-12-08T08:48:48.491Z,2.68
2022-12-08T08:53:51.786Z,2.78
2022-12-08T08:58:55.105Z,2.87
2022-12-08T09:03:58.357Z,2.98
2022-12-08T09:09:01.538Z,3.06
2022-12-08T09:14:04.603Z,3.15
2022-12-08T09:19:07.531Z,3.26
2022-12-08T09:24:15.698Z,3.23
2022-12-08T09:29:18.678Z,3.22
2022-12-08T09:34:22.438Z,3.25
2022-12-08T09:39:25.490Z,3.19
2022-12-08T09:44:49.924Z,3.16
2022-12-08T09:50:01.710Z,2.90
2022-12-08T09:55:14.659Z,2.64
2022-12-08T10:00:18.234Z,2.66
2022-12-08T10:05:24.668Z,2.67
2022-12-08T10:10:43.300Z,2.37
2022-12-08T10:16:27.997Z,2.21
2022-12-08T10:21:34.020Z,2.16
2022-12-08T10:26:37.052Z,2.15
2022-12-08T10:31:39.969Z,2.21
2022-12-08T10:36:58.936Z,2.55
2022-12-08T10:42:14.803Z,2.84
2022-12-08T10:47:24.173Z,2.96
2022-12-08T10:52:27.876Z,3.05
2022-12-08T10:57:30.780Z,3.03
2022-12-08T11:02:34.154Z,2.94
2022-12-08T11:07:47.702Z,2.83
2022-12-08T11:12:51.050Z,2.77
2022-12-08T11:18:06.886Z,2.67
2022-12-08T11:23:21.535Z,2.71
2022-12-08T11:28:25.760Z,2.77
2022-12-08T11:33:29.516Z,2.48
2022-12-08T11:38:33.939Z,2.26
2022-12-08T11:43:48.134Z,2.20
2022-12-08T11:49:05.629Z,2.19
2022-12-08T11:54:25.126Z,2.21
2022-12-08T11:59:44.572Z,2.25
2022-12-08T12:05:47.525Z,2.28
2022-12-08T12:11:03.300Z,2.25
2022-12-08T12:16:12.064Z,2.18
2022-12-08T12:21:22.878Z,2.12
2022-12-08T12:26:29.734Z,2.09
2022-12-08T12:31:37.206Z,2.03
2022-12-08T12:37:03.465Z,1.91
2022-12-08T12:42:06.371Z,1.78
2022-12-08T12:47:51.010Z,1.66
2022-12-08T12:53:27.528Z,1.61
2022-12-08T12:58:30.307Z,1.59
2022-12-08T13:03:33.784Z,1.44
2022-12-08T13:08:36.636Z,1.26
2022-12-08T13:14:00.406Z,1.11
2022-12-08T13:19:14.048Z,1.01
2022-12-08T13:24:26.059Z,0.90
2022-12-08T13:29:30.862Z,0.85
2022-12-08T13:34:56.392Z,0.84
2022-12-08T13:40:34.463Z,0.80
2022-12-08T13:46:41.969Z,0.73
2022-12-08T13:57:05.563Z,0.69
2022-12-08T14:02:17.833Z,0.67
2022-12-08T14:07:21.595Z,0.64
2022-12-08T14:12:30.654Z,0.65
2022-12-08T14:17:34.163Z,0.66
2022-12-08T14:22:38.953Z,0.70
2022-12-08T14:27:42.519Z,0.78
2022-12-08T14:32:50.104Z,0.85
2022-12-08T14:38:02.785Z,0.90
2022-12-08T14:43:08.908Z,0.93
2022-12-08T14:48:30.867Z,0.97
2022-12-08T14:53:37.779Z,1.06
2022-12-08T14:58:41.155Z,1.10
2022-12-08T15:03:50.746Z,1.11
2022-12-08T15:09:01.166Z,1.12
2022-12-08T15:14:04.086Z,1.16
2022-12-08T15:19:16.856Z,1.20
2022-12-08T15:24:24.127Z,1.22
2022-12-08T15:29:28.329Z,1.24
2022-12-08T15:34:31.881Z,1.27
2022-12-08T15:39:37.332Z,1.28
2022-12-08T15:44:42.525Z,1.28
2022-12-08T15:49:46.711Z,1.29
2022-12-08T15:54:49.965Z,1.31
2022-12-08T15:59:53.480Z,1.32
2022-12-08T16:10:22.573Z,1.40
2022-12-08T16:27:01.254Z,1.44
2022-12-08T16:31:43.115Z,1.47
2022-12-08T16:36:45.903Z,1.52
2022-12-08T16:42:07.541Z,1.53
2022-12-08T16:47:11.483Z,1.55
2022-12-08T16:52:14.301Z,1.57
2022-12-08T16:57:17.074Z,1.58
2022-12-08T17:02:22.232Z,1.58
2022-12-08T17:07:25.345Z,1.57
2022-12-08T17:12:28.160Z,1.57
2022-12-08T17:17:32.751Z,1.56
2022-12-08T17:22:35.859Z,1.55
2022-12-08T17:27:39.750Z,1.56
2022-12-08T17:32:43.171Z,1.55
2022-12-08T17:37:46.037Z,1.55
2022-12-08T17:42:48.774Z,1.56
2022-12-08T17:47:51.536Z,1.57
2022-12-08T17:52:54.417Z,1.58
2022-12-08T17:57:57.296Z,1.57
2022-12-08T18:03:00.108Z,1.59
2022-12-08T18:08:03.078Z,1.60
2022-12-08T18:13:08.700Z,1.59
2022-12-08T18:18:11.471Z,1.60
2022-12-08T18:23:17.453Z,1.63
2022-12-08T18:28:20.323Z,1.64
2022-12-08T18:33:23.072Z,1.66
2022-12-08T18:38:25.842Z,1.70
2022-12-08T18:43:28.600Z,1.72
2022-12-08T18:48:31.454Z,1.73
2022-12-08T18:53:34.270Z,1.71
2022-12-08T18:58:37.081Z,1.70
2022-12-08T19:03:45.656Z,1.72
2022-12-08T19:09:03.270Z,1.73
2022-12-08T19:14:07.420Z,1.75
2022-12-08T19:19:10.215Z,1.82
2022-12-08T19:24:13.067Z,1.86
2022-12-08T19:29:15.873Z,1.85
2022-12-08T19:34:18.984Z,1.86
2022-12-08T19:39:42.396Z,1.86
2022-12-08T19:44:54.452Z,1.84
2022-12-08T19:50:17.266Z,1.87
2022-12-08T19:55:20.623Z,1.91
2022-12-08T20:00:23.677Z,1.94
2022-12-08T20:05:26.509Z,1.96
2022-12-08T20:10:35.591Z,2.00
2022-12-08T20:15:38.466Z,2.03
2022-12-08T20:20:42.404Z,2.06
2022-12-08T20:25:46.213Z,2.10
2022-12-08T20:30:49.722Z,2.13
2022-12-08T20:36:05.453Z,2.18
2022-12-08T20:41:09.582Z,2.18
2022-12-08T20:46:14.712Z,2.17
2022-12-08T20:51:19.732Z,2.13
2022-12-08T20:56:24.483Z,2.11
2022-12-08T21:01:28.770Z,2.07
2022-12-08T21:06:32.425Z,1.96
2022-12-08T21:11:35.902Z,1.90
2022-12-08T21:16:38.930Z,1.85
2022-12-08T21:21:41.975Z,1.72
2022-12-08T21:26:44.829Z,1.59
2022-12-08T21:31:47.623Z,1.51
2022-12-08T21:36:51.061Z,1.42
2022-12-08T21:42:13.029Z,1.37
2022-12-08T21:47:16.332Z,1.31
2022-12-08T21:52:19.287Z,1.27
2022-12-08T21:57:22.188Z,1.17
2022-12-08T22:02:25.647Z,1.08
2022-12-08T22:07:28.657Z,1.04
2022-12-08T22:12:31.453Z,1.03
2022-12-08T22:17:39.904Z,1.04
2022-12-08T22:22:44.031Z,1.06
2022-12-08T22:27:47.129Z,1.05
2022-12-08T22:32:50.120Z,1.06
2022-12-08T22:37:53.529Z,1.08
2022-12-08T22:42:56.688Z,1.08
2022-12-08T22:47:59.787Z,1.06
2022-12-08T22:53:03.136Z,1.03
2022-12-08T22:58:06.034Z,1.02
2022-12-08T23:03:08.955Z,1.00
2022-12-08T23:08:15.964Z,1.01
2022-12-08T23:13:19.630Z,1.02
2022-12-08T23:18:22.663Z,1.04
2022-12-08T23:23:25.561Z,1.04
2022-12-08T23:34:02.720Z,1.09
2022-12-08T23:39:06.070Z,1.09
2022-12-08T23:44:09.465Z,1.08
2022-12-08T23:49:12.430Z,1.09
2022-12-08T23:54:15.548Z,1.06
2022-12-08T23:59:18.411Z,1.06
